Time;durP1;ratioP1;P1;durP2;ratioP2;P2;SDS_P1;SDS_P2;PMS_P1;PMS_P2;Temp;Humidity;BMP_temperature;BMP_pressure;BME280_temperature;BME280_humidity;BME280_pressure;Samples;Min_cycle;Max_cycle;Signal;HPM_P1;HPM_P2
2023/02/08 00:00:24;;;;;;;24.98;15.10;;;;;;;-8.19;100.00;94540.88;2122415;27;20433;-75
2023/02/08 00:01:47;;;;;;;18.30;12.80;;;;;;;-8.10;100.00;94543.72;2121962;27;20019;-75
2023/02/08 00:02:49;;;;;;;;;;;;;;;-7.95;100.00;94541.06;2120097;27;20789;-75
2023/02/08 00:03:51;;;;;;;19.70;12.25;;;;;;;-8.02;100.00;94537.22;2114196;28;19981;-75
2023/02/08 00:04:51;;;;;;;23.80;14.35;;;;;;;-8.20;100.00;94541.16;2113859;28;20459;-75
2023/02/08 00:05:52;;;;;;;22.80;13.57;;;;;;;-8.17;100.00;94535.41;2114019;28;20448;-75
2023/02/08 00:07:00;;;;;;;24.73;13.77;;;;;;;-8.17;100.00;94533.59;2096853;28;20024;-74
2023/02/08 00:08:07;;;;;;;22.63;13.00;;;;;;;-8.22;100.00;94538.03;2114975;27;20438;-75
2023/02/08 00:09:08;;;;;;;21.95;13.23;;;;;;;-8.22;100.00;94538.03;2113978;28;20515;-75
2023/02/08 00:10:11;;;;;;;23.75;13.90;;;;;;;-8.26;100.00;94542.19;2114542;27;20428;-74
2023/02/08 00:11:12;;;;;;;22.88;13.82;;;;;;;-8.24;100.00;94538.31;2121317;27;20456;-75
2023/02/08 00:12:20;;;;;;;25.10;14.25;;;;;;;-8.27;100.00;94530.25;2114384;27;20024;-75
2023/02/08 00:13:23;;;;;;;20.98;13.13;;;;;;;-8.37;100.00;94536.28;2113730;27;20461;-74
2023/02/08 00:14:26;;;;;;;20.90;13.82;;;;;;;-8.34;100.00;94533.13;2122634;27;20517;-74
2023/02/08 00:15:28;;;;;;;21.42;13.85;;;;;;;-8.28;100.00;94529.50;2122542;27;20509;-75
2023/02/08 00:16:29;;;;;;;24.55;14.75;;;;;;;-8.13;100.00;94534.63;2113537;27;20618;-74
2023/02/08 00:17:31;;;;;;;22.55;13.38;;;;;;;-8.01;100.00;94534.34;2122034;27;20756;-74
2023/02/08 00:18:32;;;;;;;21.27;13.60;;;;;;;-7.91;100.00;94530.94;2122117;27;20502;-74
2023/02/08 00:19:33;;;;;;;25.13;14.38;;;;;;;-7.99;100.00;94526.28;2119266;27;20158;-74
2023/02/08 00:20:36;;;;;;;21.48;13.15;;;;;;;-8.05;100.00;94522.94;2121528;27;21097;-74
2023/02/08 00:21:38;;;;;;;23.63;14.20;;;;;;;-8.12;100.00;94522.44;2122687;27;20023;-74
2023/02/08 00:22:39;;;;;;;25.65;13.98;;;;;;;-8.08;100.00;94520.88;2123041;27;20454;-75
2023/02/08 00:23:41;;;;;;;25.20;14.13;;;;;;;-8.12;100.00;94514.66;2122210;27;20449;-74
2023/02/08 00:24:42;;;;;;;22.50;13.82;;;;;;;-8.25;100.00;94523.78;2122391;27;20954;-74
2023/02/08 00:25:43;;;;;;;21.20;14.20;;;;;;;-8.32;100.00;94520.69;2122724;27;20449;-75
2023/02/08 00:26:47;;;;;;;22.65;13.18;;;;;;;-8.27;100.00;94512.13;2114918;27;20428;-75
2023/02/08 00:27:48;;;;;;;24.90;14.07;;;;;;;-8.20;100.00;94512.63;2122989;27;20429;-75
2023/02/08 00:28:49;;;;;;;23.83;14.43;;;;;;;-8.30;100.00;94518.59;2113718;28;20090;-75
2023/02/08 00:29:50;;;;;;;22.73;13.93;;;;;;;-8.29;100.00;94509.03;2113950;28;20058;-75
2023/02/08 00:30:52;;;;;;;21.92;14.15;;;;;;;-8.30;100.00;94505.63;2123094;27;20111;-75
2023/02/08 00:31:53;;;;;;;24.17;14.30;;;;;;;-8.30;100.00;94502.25;2119298;27;20405;-75
2023/02/08 00:32:55;;;;;;;26.92;14.80;;;;;;;-8.32;100.00;94504.34;2113935;28;20510;-75
2023/02/08 00:33:56;;;;;;;23.13;13.23;;;;;;;-8.40;100.00;94503.88;2122419;27;20031;-75
2023/02/08 00:34:57;;;;;;;23.17;13.65;;;;;;;-8.41;100.00;94509.31;2122480;27;20447;-75
2023/02/08 00:36:01;;;;;;;21.08;13.65;;;;;;;-8.50;100.00;94501.31;2122899;27;20433;-75
2023/02/08 00:37:02;;;;;;;21.35;13.65;;;;;;;-8.47;100.00;94500.78;2123245;27;20481;-76
2023/02/08 00:38:03;;;;;;;24.95;14.38;;;;;;;-8.54;100.00;94499.50;2123191;27;21301;-75
2023/02/08 00:39:05;;;;;;;28.40;13.55;;;;;;;-8.57;100.00;94510.38;2123039;27;20019;-75
2023/02/08 00:40:07;;;;;;;22.92;14.00;;;;;;;-8.48;100.00;94499.22;2122979;27;20361;-75
2023/02/08 00:41:08;;;;;;;23.83;13.75;;;;;;;-8.44;100.00;94499.47;2121739;27;20444;-75
2023/02/08 00:42:09;;;;;;;23.65;13.73;;;;;;;-8.44;100.00;94495.06;2113573;27;20539;-75
2023/02/08 00:43:10;;;;;;;22.05;13.85;;;;;;;-8.40;100.00;94503.09;2122275;27;20474;-75
2023/02/08 00:44:11;;;;;;;24.10;14.63;;;;;;;-8.60;100.00;94503.13;2122210;27;20437;-75
2023/02/08 00:45:13;;;;;;;22.50;13.60;;;;;;;-8.55;100.00;94497.94;2122076;27;20073;-74
2023/02/08 00:46:14;;;;;;;25.48;14.98;;;;;;;-8.48;100.00;94499.22;2121886;27;20464;-75
2023/02/08 00:47:15;;;;;;;24.95;14.27;;;;;;;-8.47;100.00;94494.81;2113922;28;20031;-75
2023/02/08 00:48:16;;;;;;;21.92;13.85;;;;;;;-8.55;100.00;94500.53;2122756;27;20103;-74
2023/02/08 00:49:17;;;;;;;24.90;14.90;;;;;;;-8.40;100.00;94495.31;2122441;27;20031;-74
2023/02/08 00:50:18;;;;;;;23.67;14.57;;;;;;;-8.47;100.00;94500.78;2121990;27;20463;-75
2023/02/08 00:51:20;;;;;;;25.60;14.68;;;;;;;-8.50;100.00;94503.91;2121490;27;20437;-74
2023/02/08 00:52:24;;;;;;;22.35;14.63;;;;;;;-8.52;100.00;94493.00;2122529;27;20433;-74
2023/02/08 00:53:25;;;;;;;24.83;13.75;;;;;;;-8.44;100.00;94492.47;2122192;27;20470;-73
2023/02/08 00:54:28;;;;;;;26.48;14.55;;;;;;;-8.44;100.00;94495.06;2123191;27;20740;-75
2023/02/08 00:55:28;;;;;;;23.02;13.82;;;;;;;-8.48;100.00;94491.44;2123101;27;20520;-75
2023/02/08 00:56:43;;;;;;;22.75;13.48;;;;;;;-8.54;100.00;94489.13;2122439;27;20441;-75
2023/02/08 00:57:44;;;;;;;24.67;13.65;;;;;;;-8.51;100.00;94488.63;2122533;27;20488;-74
2023/02/08 00:58:45;;;;;;;26.73;14.10;;;;;;;-8.51;100.00;94488.63;2113190;28;20409;-76
2023/02/08 00:59:48;;;;;;;22.75;12.50;;;;;;;-8.63;100.00;94486.28;2122438;27;20498;-75
2023/02/08 01:00:54;;;;;;;23.77;13.38;;;;;;;-8.53;100.00;94491.44;2122719;27;20523;-74
2023/02/08 01:02:03;;;;;;;23.33;13.73;;;;;;;-8.52;100.00;94487.03;2120927;27;20984;-75
2023/02/08 01:03:04;;;;;;;23.40;13.80;;;;;;;-8.56;100.00;94491.97;2121930;27;20896;-74
2023/02/08 01:04:08;;;;;;;24.00;13.82;;;;;;;-8.58;100.00;94494.06;2121811;27;20448;-75
2023/02/08 01:05:13;;;;;;;25.23;14.43;;;;;;;-8.59;100.00;94495.09;2122685;27;20544;-75
2023/02/08 01:06:17;;;;;;;22.15;13.15;;;;;;;-8.50;100.00;94493.53;2118563;27;20433;-74
2023/02/08 01:07:21;;;;;;;20.92;13.30;;;;;;;-8.65;100.00;94485.75;2122520;27;20466;-75
2023/02/08 01:08:22;;;;;;;23.45;14.25;;;;;;;-8.72;100.00;94488.63;2122565;27;20432;-75
2023/02/08 01:09:23;;;;;;;23.55;13.57;;;;;;;-8.69;100.00;94488.13;2122629;27;20432;-75
2023/02/08 01:10:27;;;;;;;24.00;14.52;;;;;;;-8.69;100.00;94484.72;2122364;27;20350;-75
2023/02/08 01:11:29;;;;;;;21.33;12.90;;;;;;;-8.66;100.00;94477.22;2122013;27;20440;-74
2023/02/08 01:12:36;;;;;;;23.70;13.82;;;;;;;-8.58;100.00;94477.72;2121507;27;20486;-74
2023/02/08 01:13:45;;;;;;;22.23;13.18;;;;;;;-8.71;100.00;94485.00;2121493;27;20413;-74
2023/02/08 01:14:49;;;;;;;23.88;13.77;;;;;;;-8.71;100.00;94485.00;2117446;27;20454;-74
2023/02/08 01:16:08;;;;;;;26.23;14.43;;;;;;;-8.79;100.00;94482.94;2121880;27;20938;-75
2023/02/08 01:17:10;;;;;;;22.73;14.02;;;;;;;-8.80;100.00;94488.38;2122129;27;20443;-74
2023/02/08 01:18:22;;;;;;;23.15;13.85;;;;;;;-8.72;100.00;94487.88;2121727;27;20540;-74
2023/02/08 01:19:27;;;;;;;21.83;12.57;;;;;;;-8.72;100.00;94483.47;2117097;27;20506;-74
2023/02/08 01:20:35;;;;;;;23.02;13.70;;;;;;;-8.67;100.00;94487.84;2109553;28;20442;-75
2023/02/08 01:21:49;;;;;;;25.58;13.77;;;;;;;-8.72;100.00;94488.63;2119982;27;20720;-75
2023/02/08 01:22:58;;;;;;;23.98;13.07;;;;;;;-8.79;100.00;94488.13;2118719;27;20789;-75
2023/02/08 01:24:17;;;;;;;23.40;13.05;;;;;;;-8.75;100.00;94483.19;2121853;27;20533;-75
2023/02/08 01:25:28;;;;;;;23.10;13.77;;;;;;;-8.76;100.00;94484.25;2118834;27;20456;-74
2023/02/08 01:26:56;;;;;;;27.08;13.95;;;;;;;-8.67;100.00;94490.44;2122310;27;20468;-76
2023/02/08 01:28:08;;;;;;;22.35;13.80;;;;;;;-8.77;100.00;94480.88;2119591;27;20073;-75
2023/02/08 01:29:11;;;;;;;21.55;12.82;;;;;;;-8.52;100.00;94487.03;2114524;27;20442;-75
2023/02/08 01:30:19;;;;;;;23.48;14.15;;;;;;;-8.73;100.00;94475.94;2121821;27;20440;-76
2023/02/08 01:31:27;;;;;;;24.65;13.45;;;;;;;-8.68;100.00;94484.50;2117820;27;20437;-75
2023/02/08 01:32:43;;;;;;;20.55;12.25;;;;;;;-8.71;100.00;94487.59;2121534;27;20640;-76
2023/02/08 01:33:47;;;;;;;;;;;;;;;-8.70;100.00;94476.19;2100952;28;20433;-75
2023/02/08 01:34:55;;;;;;;20.25;11.50;;;;;;;-8.63;100.00;94488.88;2105399;28;20349;-75
2023/02/08 01:36:02;;;;;;;23.45;14.13;;;;;;;-8.44;100.00;94476.16;2113810;28;20449;-75
2023/02/08 01:37:07;;;;;;;22.67;13.07;;;;;;;-8.33;100.00;94476.88;2113830;27;20557;-75
2023/02/08 01:38:14;;;;;;;23.65;13.40;;;;;;;-8.41;100.00;94473.03;2121365;27;20425;-75
2023/02/08 01:39:17;;;;;;;23.00;14.10;;;;;;;-8.51;100.00;94479.03;2116683;27;21000;-75
2023/02/08 01:40:45;;;;;;;24.13;14.10;;;;;;;-8.57;100.00;94482.66;2113110;28;20434;-75
2023/02/08 01:41:56;;;;;;;23.23;12.60;;;;;;;-8.51;100.00;94476.44;2118861;27;20455;-75
2023/02/08 01:42:59;;;;;;;24.15;14.80;;;;;;;-8.57;100.00;94474.09;2121042;27;20444;-75
2023/02/08 01:44:04;;;;;;;24.45;13.38;;;;;;;-8.50;100.00;94477.19;2121367;27;20416;-76
2023/02/08 01:45:19;;;;;;;21.08;12.95;;;;;;;-8.39;100.00;94470.94;2121975;27;20405;-75
2023/02/08 01:46:26;;;;;;;;;;;;;;;-8.50;100.00;94482.38;2119725;27;20429;-75
2023/02/08 01:47:46;;;;;;;20.25;11.85;;;;;;;-8.53;100.00;94473.31;2122088;27;19919;-75
2023/02/08 01:48:57;;;;;;;22.58;12.55;;;;;;;-8.11;100.00;94465.13;2117858;27;20310;-75
2023/02/08 01:50:02;;;;;;;20.92;12.43;;;;;;;-8.26;100.00;94465.16;2121691;27;20959;-75
2023/02/08 01:51:16;;;;;;;20.25;12.30;;;;;;;-8.28;100.00;94466.50;2120792;27;20476;-74
2023/02/08 01:52:27;;;;;;;22.80;12.43;;;;;;;-8.38;100.00;94462.16;2118439;27;20782;-74
2023/02/08 01:53:39;;;;;;;21.42;12.88;;;;;;;-8.37;100.00;94463.69;2121789;27;20447;-74
2023/02/08 01:55:00;;;;;;;24.20;12.90;;;;;;;-8.42;100.00;94461.88;2121849;27;20444;-75
2023/02/08 01:56:16;;;;;;;21.05;12.70;;;;;;;-8.52;100.00;94463.72;2119702;27;20917;-75
2023/02/08 01:57:25;;;;;;;21.73;11.90;;;;;;;-8.08;100.00;94450.06;2113121;28;21099;-74
2023/02/08 01:58:37;;;;;;;23.73;13.52;;;;;;;-8.33;100.00;94448.34;2119304;27;20514;-74
2023/02/08 01:59:54;;;;;;;24.73;13.18;;;;;;;-8.22;100.00;94444.69;2121940;27;20114;-75
2023/02/08 02:00:56;;;;;;;18.50;12.13;;;;;;;-8.28;100.00;94458.72;2114419;28;20451;-75
2023/02/08 02:02:00;;;;;;;23.05;12.95;;;;;;;-8.26;100.00;94447.00;2122089;27;20605;-75
2023/02/08 02:03:03;;;;;;;22.52;13.32;;;;;;;-8.14;100.00;94457.88;2122189;27;20469;-75
2023/02/08 02:04:08;;;;;;;25.33;13.57;;;;;;;-8.06;100.00;94458.38;2121950;27;21112;-75
2023/02/08 02:05:21;;;;;;;21.60;12.93;;;;;;;-8.20;100.00;94452.97;2121982;27;20988;-75
2023/02/08 02:06:31;;;;;;;24.23;13.75;;;;;;;-8.38;100.00;94449.97;2119410;27;20495;-75
2023/02/08 02:07:36;;;;;;;20.63;12.27;;;;;;;-8.38;100.00;94454.38;2121813;27;20441;-75
2023/02/08 02:08:51;;;;;;;23.50;13.00;;;;;;;-8.23;100.00;94449.09;2121979;27;20433;-74
2023/02/08 02:10:01;;;;;;;23.45;13.25;;;;;;;-8.27;100.00;94449.88;2118535;27;20424;-75
2023/02/08 02:11:08;;;;;;;22.95;12.88;;;;;;;-8.33;100.00;94459.50;2120985;27;20484;-74
2023/02/08 02:12:12;;;;;;;21.38;13.07;;;;;;;-8.24;100.00;94444.94;2122144;27;20477;-75
2023/02/08 02:13:22;;;;;;;19.23;12.13;;;;;;;-8.11;100.00;94449.56;2121401;27;20452;-75
2023/02/08 02:14:25;;;;;;;22.17;12.95;;;;;;;-7.92;100.00;94451.56;2118135;27;20592;-75
2023/02/08 02:15:27;;;;;;;23.48;12.63;;;;;;;-8.14;100.00;94454.50;2120766;28;20043;-74
2023/02/08 02:16:30;;;;;;;20.63;12.52;;;;;;;-8.21;100.00;94456.59;2112715;28;20453;-74
2023/02/08 02:17:42;;;;;;;22.48;12.10;;;;;;;-8.34;100.00;94454.56;2121268;27;20436;-75
2023/02/08 02:18:48;;;;;;;28.90;14.40;;;;;;;-8.49;100.00;94450.25;2125372;27;20456;-74
2023/02/08 02:20:03;;;;;;;21.38;13.00;;;;;;;-8.49;100.00;94445.81;2126618;27;21312;-74
2023/02/08 02:21:26;;;;;;;22.85;12.57;;;;;;;-8.41;100.00;94452.28;2129990;27;20944;-74
2023/02/08 02:22:53;;;;;;;21.52;11.80;;;;;;;-8.39;100.00;94445.00;2128138;27;20423;-74
2023/02/08 02:24:30;;;;;;;21.52;12.25;;;;;;;-8.47;100.00;94451.53;2118140;28;20437;-75
2023/02/08 02:25:45;;;;;;;19.88;11.70;;;;;;;-8.54;100.00;94447.66;2124566;27;20493;-74
2023/02/08 02:27:52;;;;;;;18.58;11.70;;;;;;;-8.69;100.00;94444.06;2121197;28;20420;-75
2023/02/08 02:29:21;;;;;;;19.45;11.18;;;;;;;-8.69;100.00;94443.28;2113357;28;20756;-75
2023/02/08 02:30:47;;;;;;;24.08;11.75;;;;;;;-8.74;100.00;94449.25;2122454;27;20447;-75
2023/02/08 02:32:12;;;;;;;19.90;12.15;;;;;;;-8.75;100.00;94447.69;2115252;27;20444;-75
2023/02/08 02:33:34;;;;;;;21.92;12.57;;;;;;;-8.72;100.00;94452.34;2130654;27;20423;-75
2023/02/08 02:34:46;;;;;;;20.70;12.25;;;;;;;-8.74;100.00;94454.41;2129221;27;20484;-75
2023/02/08 02:35:58;;;;;;;22.05;12.95;;;;;;;-8.74;100.00;94446.66;2122010;27;20443;-75
2023/02/08 02:37:15;;;;;;;19.02;11.95;;;;;;;-8.75;100.00;94447.69;2120947;28;20868;-75
2023/02/08 02:38:54;;;;;;;20.95;11.63;;;;;;;-8.33;100.00;94454.31;2106361;28;20449;-75
2023/02/08 02:40:07;;;;;;;20.13;12.15;;;;;;;-8.56;100.00;94447.13;2118230;27;20891;-75
2023/02/08 02:45:05;;;;;;;19.15;10.70;;;;;;;-8.74;100.00;94457.00;2128922;27;20034;-75
2023/02/08 02:46:16;;;;;;;24.98;11.60;;;;;;;-8.75;100.00;94447.69;2121014;28;20488;-75
2023/02/08 02:47:41;;;;;;;22.55;12.68;;;;;;;-8.81;100.00;94450.56;2118350;27;20455;-75
2023/02/08 02:48:59;;;;;;;21.40;10.77;;;;;;;-8.89;100.00;94462.22;2130503;27;20432;-75
2023/02/08 02:50:13;;;;;;;20.88;11.75;;;;;;;-8.80;100.00;94447.72;2128407;27;20440;-74
2023/02/08 02:51:21;;;;;;;;;;;;;;;-8.79;100.00;94451.06;2127906;27;20762;-75
2023/02/08 02:52:33;;;;;;;20.90;11.02;;;;;;;-8.81;100.00;94453.94;2121876;28;19907;-75
2023/02/08 02:53:38;;;;;;;18.20;10.82;;;;;;;-8.80;100.00;94452.13;2124216;27;20023;-76
2023/02/08 02:54:56;;;;;;;21.80;12.18;;;;;;;-8.83;100.00;94450.81;2130984;27;20543;-76
2023/02/08 02:56:07;;;;;;;21.85;12.18;;;;;;;-8.84;100.00;94441.50;2128112;27;20926;-75
2023/02/08 02:57:14;;;;;;;23.20;12.48;;;;;;;-8.95;100.00;94452.91;2130993;27;20476;-76
2023/02/08 02:58:19;;;;;;;18.65;11.18;;;;;;;-8.84;100.00;94449.25;2130618;27;20362;-75
2023/02/08 02:59:23;;;;;;;24.40;12.75;;;;;;;-8.48;100.00;94441.41;2122480;27;20448;-75
2023/02/08 03:00:26;;;;;;;19.20;11.73;;;;;;;-8.57;100.00;94440.41;2130562;27;20440;-75
2023/02/08 03:01:28;;;;;;;20.52;11.40;;;;;;;-8.70;100.00;94437.31;2129982;27;20439;-76
2023/02/08 03:02:43;;;;;;;20.42;11.70;;;;;;;-8.74;100.00;94440.69;2120870;28;20456;-75
2023/02/08 03:03:47;;;;;;;20.95;11.90;;;;;;;-8.58;100.00;94442.22;2121524;27;20922;-75
2023/02/08 03:04:53;;;;;;;20.40;11.23;;;;;;;-8.81;100.00;94442.78;2122601;27;20403;-75
2023/02/08 03:06:04;;;;;;;19.25;11.00;;;;;;;-8.89;100.00;94441.50;2130379;27;20444;-75
2023/02/08 03:07:20;;;;;;;16.17;10.10;;;;;;;-8.98;100.00;94441.25;2122242;27;20450;-75
2023/02/08 03:08:48;;;;;;;19.27;11.15;;;;;;;-9.02;100.00;94435.03;2130449;27;20782;-75
2023/02/08 03:10:11;;;;;;;20.67;11.70;;;;;;;-8.97;100.00;94444.63;2126790;27;20431;-75
2023/02/08 03:11:21;;;;;;;17.05;10.73;;;;;;;-9.03;100.00;94438.66;2130135;27;20503;-75
2023/02/08 03:12:33;;;;;;;19.70;11.10;;;;;;;-9.10;100.00;94437.38;2127155;27;20444;-76
2023/02/08 03:14:11;;;;;;;19.05;10.90;;;;;;;-9.16;100.00;94447.75;2130418;27;20447;-75
2023/02/08 03:15:43;;;;;;;18.35;10.25;;;;;;;-8.96;100.00;94443.56;2120815;28;20476;-76
2023/02/08 03:17:03;;;;;;;17.38;9.52;;;;;;;-8.95;100.00;94437.38;2125106;27;20491;-76
2023/02/08 03:18:21;;;;;;;19.42;10.30;;;;;;;-8.95;100.00;94443.34;2130223;27;20956;-75
2023/02/08 03:19:35;;;;;;;18.33;10.43;;;;;;;-8.97;100.00;94435.03;2126526;27;20459;-75
2023/02/08 03:20:52;;;;;;;18.13;10.50;;;;;;;-9.10;100.00;94440.75;2120896;28;20514;-75
2023/02/08 03:22:22;;;;;;;17.02;10.20;;;;;;;-9.14;100.00;94440.47;2124319;27;20412;-75
2023/02/08 03:23:53;;;;;;;17.63;10.18;;;;;;;-9.23;100.00;94444.63;2119562;27;20883;-75
2023/02/08 03:25:05;;;;;;;19.50;10.07;;;;;;;-9.30;100.00;94445.94;2117909;27;20448;-75
2023/02/08 03:26:16;;;;;;;14.82;9.73;;;;;;;-9.16;100.00;94452.91;2131489;27;20427;-75
2023/02/08 03:27:37;;;;;;;18.15;10.38;;;;;;;-9.11;100.00;94443.59;2127817;27;20543;-74
2023/02/08 03:29:15;;;;;;;19.00;10.55;;;;;;;-9.02;100.00;94449.81;2131665;27;20436;-74
2023/02/08 03:30:34;;;;;;;16.63;9.88;;;;;;;-9.15;100.00;94445.91;2128080;27;20474;-74
2023/02/08 03:32:20;;;;;;;18.77;9.30;;;;;;;-9.21;100.00;94439.97;2128831;27;20456;-74
2023/02/08 03:34:03;;;;;;;17.25;9.82;;;;;;;-8.89;100.00;94439.69;2128341;27;20436;-75
2023/02/08 03:35:24;;;;;;;19.30;9.98;;;;;;;-8.98;100.00;94430.91;2088409;28;20532;-75
2023/02/08 03:36:31;;;;;;;18.13;9.32;;;;;;;-9.10;100.00;94438.16;2085863;28;20468;-75
2023/02/08 03:38:03;;;;;;;20.15;9.95;;;;;;;-9.29;100.00;94443.06;2111784;27;20452;-74
2023/02/08 03:39:11;;;;;;;14.00;8.70;;;;;;;-9.28;100.00;94439.44;2115887;27;20437;-75
2023/02/08 03:40:19;;;;;;;16.73;9.55;;;;;;;-9.28;100.00;94434.28;2119473;27;20469;-75
2023/02/08 03:41:38;;;;;;;13.75;9.00;;;;;;;-9.34;100.00;94434.53;2117772;27;20475;-74
2023/02/08 03:42:41;;;;;;;19.08;10.18;;;;;;;-9.40;100.00;94437.09;2107265;28;20446;-74
2023/02/08 03:44:02;;;;;;;18.10;10.10;;;;;;;-9.50;100.00;94446.69;2114320;27;20524;-75
2023/02/08 03:45:11;;;;;;;15.82;9.68;;;;;;;-9.45;100.00;94442.28;2126143;27;20996;-75
2023/02/08 03:46:24;;;;;;;17.42;9.88;;;;;;;-9.37;100.00;94438.41;2115012;27;20449;-75
2023/02/08 03:47:29;;;;;;;20.23;10.48;;;;;;;-9.34;100.00;94435.31;2121115;27;20445;-75
2023/02/08 03:48:33;;;;;;;17.30;10.10;;;;;;;-9.14;100.00;94437.88;2122210;27;20478;-75
2023/02/08 03:49:36;;;;;;;19.77;9.93;;;;;;;-9.11;100.00;94434.00;2123243;27;20440;-76
2023/02/08 03:50:39;;;;;;;20.55;11.13;;;;;;;-9.23;100.00;94431.69;2122793;27;20529;-75
2023/02/08 03:51:45;;;;;;;19.73;10.02;;;;;;;-9.25;100.00;94438.94;2122783;27;20437;-75
2023/02/08 03:52:49;;;;;;;19.25;9.80;;;;;;;-9.29;100.00;94435.31;2122359;27;20828;-75
2023/02/08 03:53:54;;;;;;;20.15;9.77;;;;;;;-9.31;100.00;94426.25;2114280;27;20450;-76
2023/02/08 03:55:07;;;;;;;18.25;10.07;;;;;;;-9.16;100.00;94432.22;2122936;27;20427;-75
2023/02/08 03:56:19;;;;;;;15.38;9.82;;;;;;;-9.15;100.00;94427.78;2131532;27;20443;-75
2023/02/08 03:57:37;;;;;;;16.13;9.68;;;;;;;-9.24;100.00;94426.78;2128868;27;20465;-75
2023/02/08 03:59:10;;;;;;;19.77;10.70;;;;;;;-9.05;100.00;94427.00;2131056;27;20455;-75
2023/02/08 04:00:17;;;;;;;18.60;10.45;;;;;;;-9.18;100.00;94433.50;2126607;27;20964;-74
2023/02/08 04:01:57;;;;;;;19.58;10.35;;;;;;;-9.24;100.00;94424.94;2125560;27;20516;-73
2023/02/08 04:03:04;;;;;;;17.52;9.70;;;;;;;-9.33;100.00;94420.56;2113637;27;20460;-75
2023/02/08 04:04:12;;;;;;;18.55;10.38;;;;;;;-9.29;100.00;94424.97;2118160;27;20485;-74
2023/02/08 04:05:15;;;;;;;18.50;9.77;;;;;;;-9.13;100.00;94426.50;2123264;27;20488;-75
2023/02/08 04:06:17;;;;;;;17.23;9.90;;;;;;;-9.05;100.00;94414.06;2118206;27;20955;-75
2023/02/08 04:07:19;;;;;;;16.50;10.23;;;;;;;-9.04;100.00;94411.22;2122242;27;20799;-76
2023/02/08 04:08:20;;;;;;;19.77;10.20;;;;;;;-9.17;100.00;94417.72;2131292;27;20507;-75
2023/02/08 04:09:22;;;;;;;17.40;10.52;;;;;;;-9.32;100.00;94422.09;2131073;27;20477;-74
2023/02/08 04:10:23;;;;;;;18.65;10.20;;;;;;;-9.34;100.00;94421.59;2130996;27;20945;-75
2023/02/08 04:11:24;;;;;;;16.63;10.02;;;;;;;-9.38;100.00;94418.75;2121060;27;20445;-74
2023/02/08 04:12:25;;;;;;;18.48;9.98;;;;;;;-9.34;100.00;94417.19;2122004;27;20513;-75
2023/02/08 04:13:26;;;;;;;16.83;10.18;;;;;;;-9.16;100.00;94411.50;2121851;27;20971;-75
2023/02/08 04:14:29;;;;;;;17.02;10.25;;;;;;;-9.22;100.00;94419.50;2122175;27;20433;-74
2023/02/08 04:15:30;;;;;;;17.98;10.10;;;;;;;-9.23;100.00;94417.97;2121983;27;20019;-75
2023/02/08 04:16:31;;;;;;;18.83;10.18;;;;;;;-9.16;100.00;94415.91;2113515;27;20479;-74
2023/02/08 04:17:32;;;;;;;18.30;10.25;;;;;;;-9.14;100.00;94417.16;2121396;27;20484;-74
2023/02/08 04:18:33;;;;;;;17.80;10.07;;;;;;;-9.13;100.00;94413.56;2130922;27;20440;-75
2023/02/08 04:19:34;;;;;;;16.75;9.45;;;;;;;-9.15;100.00;94409.66;2121247;27;20027;-76
2023/02/08 04:20:36;;;;;;;17.25;9.57;;;;;;;-9.21;100.00;94415.91;2121123;27;21453;-74
2023/02/08 04:21:40;;;;;;;14.27;8.55;;;;;;;-9.30;100.00;94410.47;2121517;27;20454;-75
2023/02/08 04:22:43;;;;;;;16.20;9.85;;;;;;;-9.27;100.00;94403.97;2113468;27;20950;-75
2023/02/08 04:23:45;;;;;;;16.25;9.68;;;;;;;-9.05;100.00;94401.88;2122079;27;20505;-75
2023/02/08 04:24:47;;;;;;;18.23;9.93;;;;;;;-9.11;100.00;94402.94;2127029;27;20489;-76
2023/02/08 04:25:48;;;;;;;15.40;9.88;;;;;;;-8.97;100.00;94408.34;2123021;27;20483;-77
2023/02/08 04:26:51;;;;;;;15.20;9.20;;;;;;;-8.90;100.00;94403.69;2125884;27;20483;-76
2023/02/08 04:27:52;;;;;;;16.95;9.38;;;;;;;-9.03;100.00;94405.00;2134481;27;20417;-76
2023/02/08 04:28:53;;;;;;;16.65;9.00;;;;;;;-9.19;100.00;94401.66;2123474;27;20448;-76
2023/02/08 04:29:54;;;;;;;17.10;9.10;;;;;;;-9.14;100.00;94412.00;2122514;27;20507;-76
2023/02/08 04:30:56;;;;;;;16.13;9.50;;;;;;;-9.21;100.00;94413.31;2122380;27;20471;-76
2023/02/08 04:31:58;;;;;;;16.35;9.75;;;;;;;-9.31;100.00;94408.91;2122598;27;20524;-76
2023/02/08 04:32:59;;;;;;;15.60;9.27;;;;;;;-9.14;100.00;94404.22;2130939;27;20444;-76
2023/02/08 04:34:01;;;;;;;16.42;9.60;;;;;;;-9.15;100.00;94407.09;2130993;27;20558;-77
2023/02/08 04:35:03;;;;;;;16.65;9.18;;;;;;;-9.09;100.00;94405.25;2121617;27;20033;-76
2023/02/08 04:36:04;;;;;;;16.73;8.98;;;;;;;-9.06;100.00;94408.09;2121923;27;21013;-77
2023/02/08 04:37:11;;;;;;;17.30;8.98;;;;;;;-8.89;100.00;94418.97;2131203;27;20412;-75
2023/02/08 04:38:12;;;;;;;16.98;9.10;;;;;;;-8.80;100.00;94416.63;2121853;27;20429;-76
2023/02/08 04:39:13;;;;;;;15.15;9.30;;;;;;;-8.65;100.00;94401.06;2121900;27;20450;-76
2023/02/08 04:40:15;;;;;;;17.33;9.63;;;;;;;-8.74;100.00;94402.59;2130853;27;20450;-76
2023/02/08 04:41:16;;;;;;;16.60;9.20;;;;;;;-8.93;100.00;94414.56;2117059;27;21043;-75
2023/02/08 04:42:17;;;;;;;17.90;9.93;;;;;;;-8.93;100.00;94409.38;2113313;28;20476;-75
2023/02/08 04:43:18;;;;;;;16.83;8.93;;;;;;;-8.95;100.00;94412.25;2121747;27;20445;-76
2023/02/08 04:44:21;;;;;;;16.13;8.88;;;;;;;-8.98;100.00;94406.81;2122549;27;20482;-76
2023/02/08 04:45:22;;;;;;;19.45;9.07;;;;;;;-8.81;100.00;94407.31;2122252;27;20023;-76
2023/02/08 04:46:23;;;;;;;20.00;10.00;;;;;;;-8.97;100.00;94409.13;2131817;27;20444;-75
2023/02/08 04:47:37;;;;;;;15.32;8.77;;;;;;;-9.01;100.00;94410.69;2131369;27;20413;-76
2023/02/08 04:48:39;;;;;;;21.67;9.25;;;;;;;-8.99;100.00;94405.25;2122089;27;20451;-74
2023/02/08 04:49:45;;;;;;;15.52;9.65;;;;;;;-9.03;100.00;94410.19;2122786;27;20106;-75
2023/02/08 04:50:46;;;;;;;18.80;9.48;;;;;;;-9.06;100.00;94420.28;2122691;27;20440;-74
2023/02/08 04:51:48;;;;;;;17.08;9.13;;;;;;;-8.99;100.00;94407.84;2130950;27;20423;-74
2023/02/08 04:52:49;;;;;;;16.73;8.88;;;;;;;-8.89;100.00;94407.81;2130879;27;20472;-74
2023/02/08 04:53:51;;;;;;;15.20;8.23;;;;;;;-8.77;100.00;94415.31;2130909;27;20448;-74
2023/02/08 04:54:52;;;;;;;18.63;9.23;;;;;;;-8.82;100.00;94407.53;2131085;27;20172;-74
2023/02/08 04:55:54;;;;;;;17.05;9.35;;;;;;;-8.87;100.00;94410.91;2131050;27;20429;-75
2023/02/08 04:56:55;;;;;;;15.85;9.55;;;;;;;-8.92;100.00;94414.28;2121663;27;20437;-74
2023/02/08 04:57:57;;;;;;;17.30;9.98;;;;;;;-9.03;100.00;94410.19;2121884;27;20439;-74
2023/02/08 04:58:59;;;;;;;19.23;10.05;;;;;;;-9.04;100.00;94407.84;2130756;27;20432;-74
2023/02/08 05:00:01;;;;;;;20.45;9.63;;;;;;;-9.09;100.00;94416.38;2130802;27;20817;-74
2023/02/08 05:01:12;;;;;;;20.23;9.43;;;;;;;-8.95;100.00;94411.47;2130550;27;20463;-74
2023/02/08 05:02:13;;;;;;;18.27;9.48;;;;;;;-8.90;100.00;94408.88;2130738;27;20428;-74
2023/02/08 05:03:14;;;;;;;15.35;8.45;;;;;;;-8.99;100.00;94415.63;2130909;27;20979;-74
2023/02/08 05:04:15;;;;;;;15.80;9.43;;;;;;;-9.07;100.00;94409.16;2121815;27;20527;-74
2023/02/08 05:05:17;;;;;;;17.65;8.52;;;;;;;-9.14;100.00;94409.41;2121599;27;20448;-74
2023/02/08 05:06:18;;;;;;;18.08;9.10;;;;;;;-9.12;100.00;94416.94;2130775;27;20941;-74
2023/02/08 05:07:19;;;;;;;16.23;9.13;;;;;;;-8.97;100.00;94409.13;2131011;27;20501;-73
2023/02/08 05:08:20;;;;;;;15.02;8.80;;;;;;;-9.01;100.00;94408.09;2121416;27;20633;-72
2023/02/08 05:09:21;;;;;;;17.70;9.63;;;;;;;-8.96;100.00;94402.13;2121545;27;20104;-73
2023/02/08 05:10:26;;;;;;;19.00;8.98;;;;;;;-8.91;100.00;94404.72;2131072;27;20436;-74
2023/02/08 05:11:27;;;;;;;14.35;8.77;;;;;;;-8.80;100.00;94395.13;2130702;27;20054;-74
2023/02/08 05:12:33;;;;;;;16.35;9.00;;;;;;;-8.91;100.00;94396.94;2122394;27;20437;-75
2023/02/08 05:13:35;;;;;;;15.60;8.65;;;;;;;-8.76;100.00;94402.09;2113984;27;20461;-77
2023/02/08 05:14:36;;;;;;;17.27;9.00;;;;;;;-8.94;100.00;94403.44;2113298;27;20054;-75